Time;durP1;ratioP1;P1;durP2;ratioP2;P2;SDS_P1;SDS_P2;PMS_P1;PMS_P2;Temp;Humidity;BMP_temperature;BMP_pressure;BME280_temperature;BME280_humidity;BME280_pressure;Samples;Min_cycle;Max_cycle;Signal;HPM_P1;HPM_P2
2021/07/01 00:01:46;;;;;;;;;;;22.70;59.50;;;;;;5017277;28;19964;-61
2021/07/01 00:04:11;;;;;;;;;;;22.70;59.50;;;;;;5017777;28;19925;-62
2021/07/01 00:06:37;;;;;;;;;;;22.70;59.50;;;;;;5014500;28;19970;-62
2021/07/01 00:09:03;;;;;;;;;;;22.70;59.50;;;;;;5016842;28;19923;-62
2021/07/01 00:11:28;;;;;;;;;;;22.70;59.50;;;;;;4996576;28;19957;-63
2021/07/01 00:13:54;;;;;;;;;;;22.60;59.40;;;;;;5012941;28;20298;-62
2021/07/01 00:16:20;;;;;;;;;;;22.60;59.40;;;;;;4995070;28;19921;-62
2021/07/01 00:18:45;;;;;;;;;;;22.70;59.50;;;;;;4998561;28;19925;-62
2021/07/01 00:21:11;;;;;;;;;;;22.60;59.40;;;;;;4999093;28;19936;-61
2021/07/01 00:23:36;;;;;;;;;;;22.60;59.40;;;;;;4980911;28;19940;-62
2021/07/01 00:26:02;;;;;;;;;;;22.70;59.50;;;;;;5016957;28;19917;-62
2021/07/01 00:28:27;;;;;;;;;;;22.60;59.40;;;;;;5014850;28;19928;-62
2021/07/01 00:30:53;;;;;;;;;;;22.60;59.40;;;;;;5017111;28;20556;-62
2021/07/01 00:33:18;;;;;;;;;;;22.60;59.40;;;;;;5013405;28;19932;-62
2021/07/01 00:35:44;;;;;;;;;;;22.60;59.40;;;;;;5017159;28;19925;-62
2021/07/01 00:38:09;;;;;;;;;;;22.60;59.40;;;;;;5015343;28;19925;-62
2021/07/01 00:40:34;;;;;;;;;;;22.60;59.40;;;;;;5016621;28;19917;-63
2021/07/01 00:43:00;;;;;;;;;;;22.60;59.40;;;;;;5015512;28;19978;-63
2021/07/01 00:45:25;;;;;;;;;;;22.60;59.40;;;;;;4997939;28;19921;-63
2021/07/01 00:47:51;;;;;;;;;;;22.60;59.50;;;;;;5014925;28;20310;-62
2021/07/01 00:50:16;;;;;;;;;;;22.60;59.40;;;;;;4997639;28;19928;-63
2021/07/01 00:52:42;;;;;;;;;;;22.60;59.40;;;;;;4997692;28;19921;-63
2021/07/01 00:55:08;;;;;;;;;;;22.60;59.40;;;;;;5007733;28;19921;-63
2021/07/01 00:57:33;;;;;;;;;;;22.60;59.40;;;;;;5014229;28;20664;-62
2021/07/01 00:59:59;;;;;;;;;;;22.60;59.40;;;;;;4998017;28;20382;-62
2021/07/01 01:02:24;;;;;;;;;;;22.60;59.40;;;;;;4994436;28;20468;-62
2021/07/01 01:04:50;;;;;;;;;;;22.60;59.40;;;;;;5015918;28;19921;-60
2021/07/01 01:07:15;;;;;;;;;;;22.60;59.40;;;;;;4994734;28;20007;-62
2021/07/01 01:09:40;;;;;;;;;;;22.60;59.40;;;;;;4992404;28;19932;-62
2021/07/01 01:12:07;;;;;;;;;;;22.50;59.40;;;;;;4991268;28;20299;-62
2021/07/01 01:14:32;;;;;;;;;;;22.50;59.40;;;;;;5013901;28;20377;-61
2021/07/01 01:16:57;;;;;;;;;;;22.50;59.50;;;;;;5026261;22;19925;-64
2021/07/01 01:19:23;;;;;;;;;;;22.60;59.50;;;;;;5003079;28;19917;-64
2021/07/01 01:21:48;;;;;;;;;;;22.50;59.50;;;;;;5015892;28;20681;-64
2021/07/01 01:24:14;;;;;;;;;;;22.50;59.60;;;;;;4998926;28;19927;-64
2021/07/01 01:26:39;;;;;;;;;;;22.50;59.50;;;;;;5003410;28;19917;-63
2021/07/01 01:29:05;;;;;;;;;;;22.50;59.60;;;;;;5016551;28;19928;-64
2021/07/01 01:31:31;;;;;;;;;;;22.50;59.60;;;;;;5015502;28;19925;-64
2021/07/01 01:33:56;;;;;;;;;;;22.50;59.50;;;;;;4998844;28;19974;-64
2021/07/01 01:36:22;;;;;;;;;;;22.50;59.60;;;;;;5016727;28;19917;-63
2021/07/01 01:38:47;;;;;;;;;;;22.50;59.50;;;;;;5006745;28;19924;-64
2021/07/01 01:41:13;;;;;;;;;;;22.50;59.60;;;;;;5016257;28;19965;-64
2021/07/01 01:43:38;;;;;;;;;;;22.50;59.60;;;;;;5015886;28;19921;-64
2021/07/01 01:46:04;;;;;;;;;;;22.50;59.50;;;;;;5015756;28;19921;-63
2021/07/01 01:48:29;;;;;;;;;;;22.50;59.60;;;;;;5016228;28;19924;-63
2021/07/01 01:50:55;;;;;;;;;;;22.50;59.50;;;;;;5016333;28;20377;-63
2021/07/01 01:53:20;;;;;;;;;;;22.50;59.50;;;;;;5015569;28;19917;-63
2021/07/01 01:55:45;;;;;;;;;;;22.50;59.50;;;;;;5016022;28;19933;-63
2021/07/01 01:58:11;;;;;;;;;;;22.50;59.50;;;;;;5015434;28;19924;-62
2021/07/01 02:00:36;;;;;;;;;;;22.50;59.50;;;;;;5018161;28;20195;-64
2021/07/01 02:03:02;;;;;;;;;;;22.50;59.40;;;;;;5018519;28;19924;-64
2021/07/01 02:05:28;;;;;;;;;;;22.50;59.50;;;;;;5012718;28;20016;-64
2021/07/01 02:07:53;;;;;;;;;;;22.50;59.40;;;;;;5013024;28;19944;-62
2021/07/01 02:10:19;;;;;;;;;;;22.50;59.30;;;;;;5018992;28;19917;-63
2021/07/01 02:12:45;;;;;;;;;;;22.50;59.40;;;;;;5009477;28;19927;-63
2021/07/01 02:15:12;;;;;;;;;;;22.50;59.40;;;;;;5016913;28;20467;-64
2021/07/01 02:17:38;;;;;;;;;;;22.40;59.40;;;;;;5017465;28;20424;-63
2021/07/01 02:20:04;;;;;;;;;;;22.50;59.50;;;;;;5016001;28;19932;-63
2021/07/01 02:22:30;;;;;;;;;;;22.40;59.40;;;;;;5018444;28;20024;-62
2021/07/01 02:24:55;;;;;;;;;;;22.50;59.50;;;;;;5017755;28;20301;-62
2021/07/01 02:27:21;;;;;;;;;;;22.40;59.50;;;;;;5017824;28;19959;-62
2021/07/01 02:29:46;;;;;;;;;;;22.40;59.40;;;;;;5018566;28;19932;-62
2021/07/01 02:32:12;;;;;;;;;;;22.50;59.50;;;;;;5019023;28;19921;-63
2021/07/01 02:34:40;;;;;;;;;;;22.40;59.50;;;;;;5010943;28;20529;-61
2021/07/01 02:37:09;;;;;;;;;;;22.40;59.40;;;;;;5018794;28;19933;-62
2021/07/01 02:39:35;;;;;;;;;;;22.50;59.50;;;;;;5019350;28;20397;-63
2021/07/01 02:42:00;;;;;;;;;;;22.40;59.40;;;;;;5016722;28;19925;-62
2021/07/01 02:44:26;;;;;;;;;;;22.40;59.40;;;;;;5018790;28;19924;-62
2021/07/01 02:46:51;;;;;;;;;;;22.40;59.30;;;;;;5019383;28;19936;-63
2021/07/01 02:49:16;;;;;;;;;;;22.40;59.40;;;;;;5020472;28;19982;-63
2021/07/01 02:51:42;;;;;;;;;;;22.40;59.40;;;;;;5018018;28;19968;-63
2021/07/01 02:54:07;;;;;;;;;;;22.40;59.50;;;;;;5018590;28;20021;-64
2021/07/01 02:56:42;;;;;;;;;;;22.40;59.50;;;;;;5017340;28;19921;-62
2021/07/01 02:59:11;;;;;;;;;;;22.40;59.50;;;;;;5018525;28;20008;-63
2021/07/01 03:01:36;;;;;;;;;;;22.30;60.10;;;;;;5004298;28;20367;-63
2021/07/01 03:04:02;;;;;;;;;;;22.40;59.60;;;;;;5019377;28;20008;-63
2021/07/01 03:06:27;;;;;;;;;;;22.40;59.60;;;;;;5017548;28;19917;-62
2021/07/01 03:08:54;;;;;;;;;;;22.40;59.60;;;;;;5019260;28;20286;-64
2021/07/01 03:11:20;;;;;;;;;;;22.30;59.50;;;;;;5017368;28;19925;-62
2021/07/01 03:13:45;;;;;;;;;;;22.30;59.60;;;;;;5018627;28;19921;-63
2021/07/01 03:16:13;;;;;;;;;;;22.40;59.60;;;;;;5017812;28;19929;-62
2021/07/01 03:18:38;;;;;;;;;;;22.30;59.60;;;;;;5017922;28;20008;-62
2021/07/01 03:21:04;;;;;;;;;;;22.40;59.60;;;;;;5018238;28;19931;-61
2021/07/01 03:23:29;;;;;;;;;;;22.40;59.60;;;;;;5018511;28;19917;-63
2021/07/01 03:25:54;;;;;;;;;;;22.40;59.60;;;;;;5017059;28;19921;-63
2021/07/01 03:28:20;;;;;;;;;;;22.40;59.60;;;;;;5018069;28;20434;-64
2021/07/01 03:30:45;;;;;;;;;;;22.30;59.60;;;;;;5017192;28;19923;-62
2021/07/01 03:33:11;;;;;;;;;;;22.30;59.60;;;;;;5018167;28;19953;-62
2021/07/01 03:35:36;;;;;;;;;;;22.40;59.70;;;;;;5017798;28;20174;-63
2021/07/01 03:38:02;;;;;;;;;;;22.40;59.70;;;;;;5018391;28;20638;-63
2021/07/01 03:40:27;;;;;;;;;;;22.30;59.70;;;;;;5017601;28;19971;-63
2021/07/01 03:42:53;;;;;;;;;;;22.40;59.80;;;;;;5017743;28;19921;-63
2021/07/01 03:45:18;;;;;;;;;;;22.30;59.80;;;;;;5017401;28;20462;-63
2021/07/01 03:47:43;;;;;;;;;;;22.30;59.80;;;;;;5015768;28;19925;-63
2021/07/01 03:50:09;;;;;;;;;;;22.30;59.90;;;;;;5017089;28;20562;-63
2021/07/01 03:52:34;;;;;;;;;;;22.30;59.90;;;;;;5006902;28;19944;-63
2021/07/01 03:55:00;;;;;;;;;;;22.30;59.90;;;;;;5017480;28;20394;-63
2021/07/01 03:57:25;;;;;;;;;;;22.30;59.90;;;;;;5017699;28;20039;-63
2021/07/01 03:59:51;;;;;;;;;;;22.30;59.90;;;;;;5016845;28;19975;-64
2021/07/01 04:02:16;;;;;;;;;;;22.30;59.90;;;;;;5017242;28;19928;-62
2021/07/01 04:04:42;;;;;;;;;;;22.30;59.90;;;;;;5017460;28;20041;-62
2021/07/01 04:07:08;;;;;;;;;;;22.20;59.90;;;;;;5017436;28;20579;-63
2021/07/01 04:09:34;;;;;;;;;;;22.30;60.50;;;;;;5005735;28;19917;-63
2021/07/01 04:11:59;;;;;;;;;;;22.30;59.90;;;;;;5017508;28;19917;-62
2021/07/01 04:14:24;;;;;;;;;;;22.30;59.80;;;;;;5016305;28;19917;-62
2021/07/01 04:16:50;;;;;;;;;;;22.30;59.70;;;;;;5016938;28;19925;-63
2021/07/01 04:19:15;;;;;;;;;;;22.30;59.80;;;;;;5016694;28;19932;-63
2021/07/01 04:21:41;;;;;;;;;;;22.30;59.80;;;;;;5015409;28;20567;-63
2021/07/01 04:24:06;;;;;;;;;;;22.30;59.80;;;;;;5014902;28;19947;-62
2021/07/01 04:26:32;;;;;;;;;;;22.30;59.70;;;;;;5016441;28;19917;-63
2021/07/01 04:28:57;;;;;;;;;;;22.20;59.40;;;;;;5016909;28;19921;-63
2021/07/01 04:31:23;;;;;;;;;;;22.30;59.10;;;;;;5017280;28;19925;-63
2021/07/01 04:33:48;;;;;;;;;;;22.20;59.10;;;;;;5018140;28;20178;-63
2021/07/01 04:36:14;;;;;;;;;;;22.20;59.10;;;;;;5016146;28;19979;-62
2021/07/01 04:38:39;;;;;;;;;;;22.20;59.00;;;;;;4999156;28;19917;-62
2021/07/01 04:41:05;;;;;;;;;;;22.20;59.20;;;;;;5017169;28;19979;-63
2021/07/01 04:43:30;;;;;;;;;;;22.20;59.20;;;;;;5016591;28;20199;-62
2021/07/01 04:45:56;;;;;;;;;;;22.20;59.20;;;;;;5016136;28;19941;-62
2021/07/01 04:48:21;;;;;;;;;;;22.10;59.30;;;;;;5016228;28;19921;-63
2021/07/01 04:50:46;;;;;;;;;;;22.20;59.90;;;;;;5017179;28;20334;-65
2021/07/01 04:53:12;;;;;;;;;;;22.10;59.60;;;;;;5015407;28;19979;-63
2021/07/01 04:55:37;;;;;;;;;;;22.20;59.20;;;;;;5016193;28;19948;-63
2021/07/01 04:58:03;;;;;;;;;;;22.10;59.20;;;;;;4998794;28;19917;-63
2021/07/01 05:00:28;;;;;;;;;;;22.10;59.30;;;;;;4998537;28;20352;-62
2021/07/01 05:02:54;;;;;;;;;;;22.00;59.30;;;;;;5016807;28;19932;-62
2021/07/01 05:05:19;;;;;;;;;;;22.00;59.20;;;;;;5017523;28;19994;-62
2021/07/01 05:07:45;;;;;;;;;;;22.00;59.20;;;;;;5015519;28;20266;-62
2021/07/01 05:10:10;;;;;;;;;;;21.90;59.90;;;;;;5015568;28;19925;-62
2021/07/01 05:12:36;;;;;;;;;;;21.90;59.30;;;;;;5006353;28;20420;-63
2021/07/01 05:15:01;;;;;;;;;;;21.90;59.60;;;;;;5015778;28;20306;-62
2021/07/01 05:17:27;;;;;;;;;;;21.90;59.60;;;;;;5013408;28;19979;-62
2021/07/01 05:19:52;;;;;;;;;;;21.90;59.80;;;;;;5015418;28;19925;-63
2021/07/01 05:22:17;;;;;;;;;;;21.90;59.80;;;;;;5014616;28;19929;-62
2021/07/01 05:24:43;;;;;;;;;;;21.90;59.80;;;;;;5013486;28;20436;-63
2021/07/01 05:27:08;;;;;;;;;;;21.90;61.10;;;;;;5018555;28;19917;-63
2021/07/01 05:29:34;;;;;;;;;;;22.00;61.70;;;;;;5017837;28;19914;-63
2021/07/01 05:31:59;;;;;;;;;;;22.00;60.90;;;;;;5017716;28;19966;-62
2021/07/01 05:34:25;;;;;;;;;;;22.10;60.60;;;;;;5020701;28;20389;-62
2021/07/01 05:36:50;;;;;;;;;;;22.00;60.30;;;;;;5022209;28;19917;-62
2021/07/01 05:39:16;;;;;;;;;;;22.00;60.30;;;;;;5004787;28;20290;-62
2021/07/01 05:41:41;;;;;;;;;;;22.00;60.50;;;;;;5021438;28;19984;-62
2021/07/01 05:44:07;;;;;;;;;;;22.00;60.60;;;;;;5016100;28;20499;-61
2021/07/01 05:46:32;;;;;;;;;;;22.00;60.30;;;;;;5021855;28;19924;-62
2021/07/01 05:48:58;;;;;;;;;;;22.00;60.40;;;;;;5022695;28;19917;-62
2021/07/01 05:51:24;;;;;;;;;;;22.00;60.20;;;;;;5019188;28;19920;-62
2021/07/01 05:56:36;;;;;;;;;;;22.00;60.20;;;;;;5020573;28;19917;-62
2021/07/01 05:59:05;;;;;;;;;;;22.00;60.20;;;;;;5022011;28;20375;-62
2021/07/01 06:01:31;;;;;;;;;;;22.00;60.20;;;;;;5020830;28;19975;-62
2021/07/01 06:03:56;;;;;;;;;;;22.00;60.20;;;;;;5021214;28;20294;-62
2021/07/01 06:06:21;;;;;;;;;;;22.00;60.20;;;;;;5002748;28;19956;-64
2021/07/01 06:08:47;;;;;;;;;;;22.00;60.20;;;;;;5021584;28;20386;-62
2021/07/01 06:11:12;;;;;;;;;;;21.90;60.20;;;;;;5007584;28;19940;-63
2021/07/01 06:13:41;;;;;;;;;;;22.00;60.30;;;;;;5003751;28;19979;-60
2021/07/01 06:16:09;;;;;;;;;;;21.90;60.30;;;;;;5005580;28;19928;-63
2021/07/01 06:18:35;;;;;;;;;;;21.90;60.20;;;;;;5006807;28;20358;-63
2021/07/01 06:21:00;;;;;;;;;;;22.00;60.20;;;;;;5004563;28;19917;-62
2021/07/01 06:23:25;;;;;;;;;;;21.90;60.20;;;;;;4990156;28;19917;-63
2021/07/01 06:25:54;;;;;;;;;;;21.90;60.30;;;;;;5024365;28;19917;-63
2021/07/01 06:28:19;;;;;;;;;;;21.90;60.20;;;;;;5024102;28;19913;-63
2021/07/01 06:30:46;;;;;;;;;;;21.90;60.10;;;;;;5020369;28;19922;-63
2021/07/01 06:33:12;;;;;;;;;;;22.00;60.20;;;;;;5024079;28;19913;-63
2021/07/01 06:35:37;;;;;;;;;;;22.00;60.20;;;;;;5023791;28;19913;-63
2021/07/01 06:38:07;;;;;;;;;;;21.90;60.20;;;;;;5024190;28;19988;-63
2021/07/01 06:40:33;;;;;;;;;;;21.90;60.20;;;;;;5023176;28;19918;-62
2021/07/01 06:42:58;;;;;;;;;;;22.00;60.20;;;;;;5005199;28;19917;-62
2021/07/01 06:45:24;;;;;;;;;;;22.00;60.20;;;;;;5004655;28;20000;-63
2021/07/01 06:47:50;;;;;;;;;;;21.90;60.30;;;;;;5023300;28;19913;-63
2021/07/01 06:50:17;;;;;;;;;;;21.90;60.30;;;;;;5016845;28;19917;-63
2021/07/01 06:52:43;;;;;;;;;;;21.90;60.40;;;;;;5022138;28;19991;-62
2021/07/01 06:55:09;;;;;;;;;;;21.90;60.30;;;;;;4988073;28;19917;-62
2021/07/01 06:57:35;;;;;;;;;;;21.90;60.60;;;;;;5004278;28;19913;-63
2021/07/01 07:00:00;;;;;;;;;;;21.90;60.70;;;;;;4987947;28;19924;-63
2021/07/01 07:02:26;;;;;;;;;;;21.90;62.10;;;;;;5021628;28;19917;-62
2021/07/01 07:04:51;;;;;;;;;;;21.90;62.10;;;;;;5004428;28;19920;-63
2021/07/01 07:07:17;;;;;;;;;;;21.90;62.20;;;;;;5022070;28;20507;-63
2021/07/01 07:09:42;;;;;;;;;;;21.90;61.80;;;;;;5004270;28;19932;-62
2021/07/01 07:12:08;;;;;;;;;;;22.00;61.30;;;;;;5005703;28;19939;-63
2021/07/01 07:14:33;;;;;;;;;;;22.00;61.20;;;;;;5004891;28;19971;-63
2021/07/01 07:16:59;;;;;;;;;;;21.90;61.10;;;;;;5021852;28;19928;-62
2021/07/01 07:19:25;;;;;;;;;;;21.90;61.10;;;;;;5022430;28;19921;-62
2021/07/01 07:21:51;;;;;;;;;;;21.90;61.20;;;;;;5021881;28;19925;-63
2021/07/01 07:24:17;;;;;;;;;;;21.90;61.20;;;;;;5023198;28;19924;-63
2021/07/01 07:26:43;;;;;;;;;;;22.00;61.30;;;;;;5020048;28;19914;-62
2021/07/01 07:29:09;;;;;;;;;;;21.90;61.20;;;;;;5022886;28;19982;-62
2021/07/01 07:31:37;;;;;;;;;;;21.90;61.30;;;;;;5022235;28;19921;-63
2021/07/01 07:34:04;;;;;;;;;;;21.90;61.30;;;;;;5067920;22;20343;-68
2021/07/01 07:36:30;;;;;;;;;;;21.90;61.40;;;;;;5021203;28;20303;-69
2021/07/01 07:38:55;;;;;;;;;;;21.90;61.40;;;;;;5016417;28;19913;-70
2021/07/01 07:41:21;;;;;;;;;;;21.90;61.50;;;;;;5008516;28;19975;-68
2021/07/01 07:43:46;;;;;;;;;;;21.90;61.40;;;;;;5019961;28;19921;-68
2021/07/01 07:46:12;;;;;;;;;;;21.90;61.70;;;;;;5042267;28;19928;-70
2021/07/01 07:48:40;;;;;;;;;;;21.80;61.60;;;;;;5036685;28;20440;-70
2021/07/01 07:51:06;;;;;;;;;;;21.80;61.90;;;;;;5045314;28;19917;-69
2021/07/01 07:53:32;;;;;;;;;;;21.80;62.30;;;;;;5034805;28;20355;-72
2021/07/01 07:56:04;;;;;;;;;;;21.80;62.20;;;;;;5033946;28;19970;-71
2021/07/01 07:58:31;;;;;;;;;;;21.80;62.00;;;;;;5028808;28;20438;-70
2021/07/01 08:00:56;;;;;;;;;;;21.70;62.30;;;;;;5039358;28;19913;-69
2021/07/01 08:03:22;;;;;;;;;;;21.70;62.50;;;;;;5045566;28;19943;-71
2021/07/01 08:05:47;;;;;;;;;;;21.70;62.20;;;;;;5045574;28;19962;-69
2021/07/01 08:08:14;;;;;;;;;;;21.70;62.00;;;;;;5024303;28;19917;-69
2021/07/01 08:10:39;;;;;;;;;;;21.60;62.70;;;;;;5032174;28;19961;-68
2021/07/01 08:13:05;;;;;;;;;;;21.70;62.50;;;;;;5036348;28;19959;-69
2021/07/01 08:15:31;;;;;;;;;;;21.70;62.70;;;;;;5040947;28;19963;-70
2021/07/01 08:17:56;;;;;;;;;;;21.70;62.70;;;;;;5044124;28;20298;-70
2021/07/01 08:20:22;;;;;;;;;;;21.70;62.70;;;;;;5026217;28;19916;-69
2021/07/01 08:22:48;;;;;;;;;;;21.70;62.70;;;;;;5044664;28;19916;-68
2021/07/01 08:25:14;;;;;;;;;;;21.70;62.90;;;;;;5039898;28;19913;-68
2021/07/01 08:27:43;;;;;;;;;;;21.70;62.90;;;;;;5029230;28;19924;-69
2021/07/01 08:30:08;;;;;;;;;;;21.70;63.10;;;;;;5026023;28;19913;-69
2021/07/01 08:32:34;;;;;;;;;;;21.70;63.10;;;;;;5035311;28;20379;-69
2021/07/01 08:35:00;;;;;;;;;;;21.60;62.60;;;;;;5025662;28;19923;-69
2021/07/01 08:37:25;;;;;;;;;;;21.60;63.00;;;;;;5031164;28;20380;-69
2021/07/01 08:39:51;;;;;;;;;;;21.60;63.00;;;;;;5040290;28;20035;-70
2021/07/01 08:42:16;;;;;;;;;;;21.60;63.40;;;;;;5025647;28;20466;-69
2021/07/01 08:44:43;;;;;;;;;;;21.60;63.40;;;;;;5022663;28;19971;-70
2021/07/01 08:47:12;;;;;;;;;;;21.50;63.00;;;;;;5027851;28;19939;-69
2021/07/01 08:49:47;;;;;;;;;;;21.50;63.50;;;;;;5032522;28;19913;-69
2021/07/01 08:52:13;;;;;;;;;;;21.60;63.50;;;;;;5036749;28;19917;-69
2021/07/01 08:54:39;;;;;;;;;;;21.60;63.70;;;;;;5030360;28;19912;-69
2021/07/01 08:57:05;;;;;;;;;;;21.60;63.50;;;;;;5025598;28;19913;-69
2021/07/01 08:59:55;;;;;;;;;;;21.60;63.60;;;;;;5030716;28;19921;-70
2021/07/01 09:02:22;;;;;;;;;;;21.50;63.10;;;;;;5022731;28;20319;-69
2021/07/01 09:04:48;;;;;;;;;;;21.50;63.50;;;;;;5039163;28;19921;-68
2021/07/01 09:07:15;;;;;;;;;;;21.40;63.30;;;;;;5025853;28;19913;-69
2021/07/01 09:09:41;;;;;;;;;;;21.50;63.60;;;;;;5041902;28;19933;-70
2021/07/01 09:12:06;;;;;;;;;;;21.50;63.70;;;;;;5029152;28;19913;-69
2021/07/01 09:14:32;;;;;;;;;;;21.50;63.70;;;;;;5042328;28;19913;-70
2021/07/01 09:17:02;;;;;;;;;;;21.50;63.80;;;;;;5036623;28;19925;-69
2021/07/01 09:19:27;;;;;;;;;;;21.50;63.80;;;;;;5037580;28;19920;-69
2021/07/01 09:21:53;;;;;;;;;;;21.50;63.50;;;;;;5030476;28;19917;-69
2021/07/01 09:24:18;;;;;;;;;;;21.40;63.20;;;;;;5047097;28;20295;-71
2021/07/01 09:26:47;;;;;;;;;;;21.40;63.20;;;;;;5026150;28;20023;-70
2021/07/01 09:29:12;;;;;;;;;;;21.40;63.30;;;;;;5040015;28;19928;-70
2021/07/01 09:31:38;;;;;;;;;;;21.40;62.90;;;;;;5043999;28;19913;-69
2021/07/01 09:34:03;;;;;;;;;;;21.40;63.20;;;;;;5027043;28;19982;-69
2021/07/01 09:36:30;;;;;;;;;;;21.40;62.70;;;;;;5028969;28;19919;-71
2021/07/01 09:38:57;;;;;;;;;;;21.40;62.90;;;;;;5039950;28;19940;-69
2021/07/01 09:41:23;;;;;;;;;;;21.40;63.10;;;;;;5028176;28;19924;-70
2021/07/01 09:43:48;;;;;;;;;;;21.40;63.10;;;;;;5027202;28;20388;-69
2021/07/01 09:46:18;;;;;;;;;;;21.30;62.90;;;;;;5028194;28;19920;-68
2021/07/01 09:48:48;;;;;;;;;;;21.30;63.00;;;;;;5032353;28;20282;-70
2021/07/01 09:51:13;;;;;;;;;;;21.30;63.00;;;;;;5035853;28;20011;-69
2021/07/01 09:53:39;;;;;;;;;;;21.30;63.10;;;;;;5031756;28;19948;-70
2021/07/01 09:56:05;;;;;;;;;;;21.40;63.20;;;;;;5035743;28;20455;-69
2021/07/01 09:58:31;;;;;;;;;;;21.40;63.10;;;;;;5031585;28;19927;-69
2021/07/01 10:00:57;;;;;;;;;;;21.50;63.60;;;;;;5035927;28;20021;-69
2021/07/01 10:03:22;;;;;;;;;;;21.50;63.60;;;;;;5035947;28;19917;-69
2021/07/01 10:05:48;;;;;;;;;;;21.50;63.80;;;;;;5028526;28;20463;-69
2021/07/01 10:08:13;;;;;;;;;;;21.50;63.50;;;;;;5038558;28;19919;-67
2021/07/01 10:10:42;;;;;;;;;;;21.50;63.70;;;;;;5033837;28;19920;-70
2021/07/01 10:13:07;;;;;;;;;;;21.60;63.60;;;;;;5040212;28;19917;-68
2021/07/01 10:15:34;;;;;;;;;;;21.60;63.70;;;;;;5027891;28;19920;-69
2021/07/01 10:18:07;;;;;;;;;;;21.60;63.70;;;;;;5031771;28;20435;-69
2021/07/01 10:20:38;;;;;;;;;;;21.60;63.50;;;;;;5037358;28;20031;-70
2021/07/01 10:23:17;;;;;;;;;;;21.60;63.70;;;;;;5035663;28;19920;-70
2021/07/01 10:25:42;;;;;;;;;;;21.60;63.50;;;;;;5035363;28;20004;-72
2021/07/01 10:28:09;;;;;;;;;;;21.60;63.40;;;;;;5030707;28;20459;-69
2021/07/01 10:30:34;;;;;;;;;;;21.60;63.60;;;;;;5037873;28;19913;-71
2021/07/01 10:33:00;;;;;;;;;;;21.60;63.70;;;;;;5041593;28;19927;-68
2021/07/01 10:35:28;;;;;;;;;;;21.50;63.80;;;;;;5029318;28;19948;-69
2021/07/01 10:37:56;;;;;;;;;;;21.60;63.50;;;;;;5041269;28;20395;-69
2021/07/01 10:40:22;;;;;;;;;;;21.50;63.50;;;;;;5041873;28;19953;-70
2021/07/01 10:42:50;;;;;;;;;;;21.50;63.60;;;;;;5037396;28;19921;-71
2021/07/01 10:45:16;;;;;;;;;;;21.50;63.70;;;;;;5027070;28;19917;-71
2021/07/01 10:47:42;;;;;;;;;;;21.50;63.40;;;;;;5038798;28;19913;-71
2021/07/01 10:50:20;;;;;;;;;;;21.50;62.80;;;;;;5044745;28;19913;-70
2021/07/01 10:52:45;;;;;;;;;;;21.50;63.20;;;;;;5040696;28;19912;-68
2021/07/01 10:55:11;;;;;;;;;;;21.50;62.80;;;;;;5027736;28;20034;-69
2021/07/01 10:57:43;;;;;;;;;;;21.50;63.10;;;;;;5030893;28;20376;-70
2021/07/01 11:00:08;;;;;;;;;;;21.50;62.30;;;;;;5026989;28;19913;-69
2021/07/01 11:02:34;;;;;;;;;;;21.50;63.10;;;;;;5024284;28;19921;-69
2021/07/01 11:05:02;;;;;;;;;;;21.50;62.20;;;;;;5031204;28;19974;-68
2021/07/01 11:07:28;;;;;;;;;;;21.50;62.40;;;;;;5042096;28;19918;-69
2021/07/01 11:09:56;;;;;;;;;;;21.50;62.80;;;;;;5024161;28;20350;-69
2021/07/01 11:12:23;;;;;;;;;;;21.50;62.30;;;;;;5025263;28;19987;-70
2021/07/01 11:14:49;;;;;;;;;;;21.50;62.80;;;;;;5034677;28;19913;-69
2021/07/01 11:17:16;;;;;;;;;;;21.50;63.10;;;;;;5025288;28;19909;-70
2021/07/01 11:19:42;;;;;;;;;;;21.50;62.80;;;;;;5029008;28;19913;-69
2021/07/01 11:22:07;;;;;;;;;;;21.50;62.60;;;;;;5040561;28;19928;-68
2021/07/01 11:24:33;;;;;;;;;;;21.40;62.10;;;;;;5032009;28;19913;-70
2021/07/01 11:27:02;;;;;;;;;;;21.40;62.30;;;;;;5037232;28;19913;-69
2021/07/01 11:29:40;;;;;;;;;;;21.40;62.50;;;;;;5032402;28;19913;-70
2021/07/01 11:32:27;;;;;;;;;;;21.40;62.70;;;;;;5025528;28;19986;-69
2021/07/01 11:34:53;;;;;;;;;;;21.50;62.90;;;;;;5020208;28;19971;-68
2021/07/01 11:37:53;;;;;;;;;;;21.40;62.60;;;;;;5030794;28;19913;-66
2021/07/01 11:40:20;;;;;;;;;;;21.40;62.70;;;;;;4994161;28;19963;-68
2021/07/01 11:42:46;;;;;;;;;;;21.40;62.70;;;;;;5039218;28;19953;-67
2021/07/01 11:45:12;;;;;;;;;;;21.40;62.00;;;;;;5028654;28;19952;-69
2021/07/01 11:47:37;;;;;;;;;;;21.40;62.50;;;;;;5021545;28;20431;-66
2021/07/01 11:50:03;;;;;;;;;;;21.40;63.00;;;;;;5023607;28;19982;-68
2021/07/01 11:52:31;;;;;;;;;;;21.40;63.00;;;;;;5035907;28;19927;-69
2021/07/01 11:54:57;;;;;;;;;;;21.50;63.10;;;;;;5037401;28;19917;-69
2021/07/01 11:57:22;;;;;;;;;;;21.50;62.90;;;;;;5022587;28;20351;-68
2021/07/01 11:59:48;;;;;;;;;;;21.40;62.70;;;;;;5039816;28;19947;-67
2021/07/01 12:02:13;;;;;;;;;;;21.40;62.60;;;;;;5024852;28;19917;-67
2021/07/01 12:04:39;;;;;;;;;;;21.40;62.50;;;;;;5037963;28;20526;-67
2021/07/01 12:07:23;;;;;;;;;;;21.40;62.70;;;;;;5032220;28;20102;-68
2021/07/01 12:09:48;;;;;;;;;;;21.30;62.40;;;;;;5014725;28;20387;-66
2021/07/01 12:12:15;;;;;;;;;;;21.30;62.70;;;;;;5023497;28;19928;-66
2021/07/01 12:14:42;;;;;;;;;;;21.40;62.50;;;;;;5038570;28;19924;-68
2021/07/01 12:17:07;;;;;;;;;;;21.40;62.50;;;;;;5035398;28;20021;-70
2021/07/01 12:19:53;;;;;;;;;;;21.40;62.30;;;;;;5039501;28;20049;-69
2021/07/01 12:22:37;;;;;;;;;;;21.40;62.20;;;;;;5026887;28;19925;-68
2021/07/01 12:25:03;;;;;;;;;;;21.30;62.00;;;;;;5033363;28;19917;-68
2021/07/01 12:27:31;;;;;;;;;;;21.30;62.10;;;;;;5035360;28;19996;-68
2021/07/01 12:29:56;;;;;;;;;;;21.30;62.20;;;;;;5028961;28;19921;-67
2021/07/01 12:32:22;;;;;;;;;;;21.30;62.40;;;;;;5033936;28;19921;-68
2021/07/01 12:34:48;;;;;;;;;;;21.30;62.40;;;;;;5039363;28;20368;-68
2021/07/01 12:37:14;;;;;;;;;;;21.40;62.50;;;;;;5029078;28;19913;-68
2021/07/01 12:39:39;;;;;;;;;;;21.40;62.50;;;;;;5030610;28;20373;-67
2021/07/01 12:42:05;;;;;;;;;;;21.40;62.50;;;;;;5033791;28;19920;-67
2021/07/01 12:44:31;;;;;;;;;;;21.30;62.10;;;;;;5033993;28;19925;-68
2021/07/01 12:46:57;;;;;;;;;;;21.30;62.40;;;;;;5023375;28;19919;-68
2021/07/01 12:49:27;;;;;;;;;;;21.30;62.60;;;;;;5041183;28;20004;-69
2021/07/01 12:51:59;;;;;;;;;;;21.30;63.00;;;;;;5038511;28;19960;-69
2021/07/01 12:54:27;;;;;;;;;;;21.30;62.90;;;;;;5014798;28;19921;-67
2021/07/01 12:56:56;;;;;;;;;;;21.40;62.90;;;;;;5042488;28;19944;-68
2021/07/01 12:59:28;;;;;;;;;;;21.30;62.60;;;;;;5036896;28;19916;-68
2021/07/01 13:01:53;;;;;;;;;;;21.40;63.30;;;;;;5032504;28;19924;-70
2021/07/01 13:04:22;;;;;;;;;;;21.40;63.40;;;;;;5024566;28;19914;-68
2021/07/01 13:06:47;;;;;;;;;;;21.40;63.20;;;;;;5034812;28;19917;-68
2021/07/01 13:09:31;;;;;;;;;;;21.40;62.40;;;;;;5024564;28;20361;-68
2021/07/01 13:11:56;;;;;;;;;;;21.40;62.10;;;;;;5042984;28;19972;-67
2021/07/01 13:14:25;;;;;;;;;;;21.30;61.80;;;;;;5033643;28;19956;-69
2021/07/01 13:17:00;;;;;;;;;;;21.30;61.60;;;;;;5035888;28;19955;-69
2021/07/01 13:19:25;;;;;;;;;;;21.30;61.50;;;;;;5040494;28;19962;-68
2021/07/01 13:21:51;;;;;;;;;;;21.30;61.00;;;;;;5032687;28;19917;-68
2021/07/01 13:24:17;;;;;;;;;;;21.30;61.10;;;;;;5035588;28;20454;-68
2021/07/01 13:26:43;;;;;;;;;;;21.30;61.00;;;;;;5027844;28;19917;-68
2021/07/01 13:29:08;;;;;;;;;;;21.20;60.60;;;;;;5040379;28;19928;-67
2021/07/01 13:31:33;;;;;;;;;;;21.20;60.90;;;;;;5038074;28;19924;-68
2021/07/01 13:34:02;;;;;;;;;;;21.20;60.40;;;;;;5028132;28;19951;-67
2021/07/01 13:36:28;;;;;;;;;;;21.20;61.00;;;;;;5030025;28;20897;-68
2021/07/01 13:38:53;;;;;;;;;;;21.20;60.40;;;;;;5040885;28;20507;-68
2021/07/01 13:41:25;;;;;;;;;;;21.20;60.60;;;;;;5026345;28;19913;-67
2021/07/01 13:43:50;;;;;;;;;;;21.20;61.00;;;;;;5031388;28;19924;-67
2021/07/01 13:46:16;;;;;;;;;;;21.20;61.60;;;;;;5035682;28;19925;-68
2021/07/01 13:48:41;;;;;;;;;;;21.30;61.60;;;;;;5024503;28;19917;-67
2021/07/01 13:51:07;;;;;;;;;;;21.30;61.50;;;;;;5029696;28;20183;-66
2021/07/01 13:53:34;;;;;;;;;;;21.30;61.40;;;;;;5042515;28;19924;-68
2021/07/01 13:56:01;;;;;;;;;;;21.30;61.80;;;;;;5034481;28;19971;-67
2021/07/01 13:58:27;;;;;;;;;;;21.30;61.80;;;;;;5036628;28;19921;-69
2021/07/01 14:00:53;;;;;;;;;;;21.30;61.60;;;;;;5037492;28;19928;-69
2021/07/01 14:03:19;;;;;;;;;;;21.30;61.90;;;;;;5032563;28;20082;-66
2021/07/01 14:05:44;;;;;;;;;;;21.30;60.80;;;;;;5033495;28;19948;-68
2021/07/01 14:08:21;;;;;;;;;;;21.20;60.80;;;;;;5034958;28;19955;-66
2021/07/01 14:10:54;;;;;;;;;;;21.20;60.90;;;;;;5034406;28;20464;-68
2021/07/01 14:13:19;;;;;;;;;;;21.10;60.50;;;;;;5035508;28;19917;-68
2021/07/01 14:15:45;;;;;;;;;;;21.10;60.80;;;;;;5024849;28;19917;-68